createdAt,value
2019-04-23T00:00:40.717Z,12.15
2019-04-23T00:02:33.170Z,12.13
2019-04-23T00:03:40.322Z,12.18
2019-04-23T00:04:36.842Z,12.13
2019-04-23T00:06:43.331Z,12.20
2019-04-23T00:07:51.514Z,12.21
2019-04-23T00:09:43.827Z,12.17
2019-04-23T00:10:33.487Z,12.27
2019-04-23T00:11:41.279Z,12.24
2019-04-23T00:13:45.371Z,12.18
2019-04-23T00:14:47.635Z,12.12
2019-04-23T00:15:40.980Z,12.12
2019-04-23T00:16:40.792Z,12.24
2019-04-23T00:17:43.773Z,12.17
2019-04-23T00:18:42.579Z,12.20
2019-04-23T00:19:45.137Z,12.20
2019-04-23T00:20:45.996Z,12.21
2019-04-23T00:21:40.549Z,12.21
2019-04-23T00:22:45.341Z,12.20
2019-04-23T00:23:47.887Z,12.20
2019-04-23T00:25:09.017Z,12.13
2019-04-23T00:26:53.702Z,12.15
2019-04-23T00:28:06.597Z,12.20
2019-04-23T00:28:45.664Z,12.29
2019-04-23T00:29:46.180Z,12.15
2019-04-23T00:30:48.273Z,12.20
2019-04-23T00:31:39.190Z,12.21
2019-04-23T00:32:40.343Z,12.18
2019-04-23T00:33:34.626Z,12.15
2019-04-23T00:34:42.675Z,12.18
2019-04-23T00:35:38.907Z,12.17
2019-04-23T00:36:37.768Z,12.20
2019-04-23T00:37:35.315Z,12.18
2019-04-23T00:38:39.548Z,12.18
2019-04-23T00:39:41.233Z,12.17
2019-04-23T00:40:39.076Z,12.18
2019-04-23T00:42:41.502Z,12.20
2019-04-23T00:43:43.266Z,12.21
2019-04-23T00:46:41.920Z,12.21
2019-04-23T00:47:41.420Z,12.21
2019-04-23T00:48:42.843Z,12.25
2019-04-23T00:49:40.097Z,12.29
2019-04-23T00:50:44.980Z,12.20
2019-04-23T00:51:47.114Z,12.24
2019-04-23T00:52:40.527Z,12.35
2019-04-23T00:53:32.711Z,12.22
2019-04-23T00:54:40.373Z,12.37
2019-04-23T00:55:44.805Z,12.29
2019-04-23T00:56:50.835Z,12.31
2019-04-23T00:58:41.547Z,12.32
2019-04-23T00:59:46.844Z,12.40
2019-04-23T01:00:43.529Z,12.39
2019-04-23T01:01:42.706Z,12.32
2019-04-23T01:03:33.915Z,12.35
2019-04-23T01:04:39.713Z,12.37
2019-04-23T01:06:39.356Z,12.36
2019-04-23T01:07:40.414Z,12.36
2019-04-23T01:08:36.763Z,12.39
2019-04-23T01:09:49.239Z,12.32
2019-04-23T01:10:45.851Z,12.37
2019-04-23T01:11:39.190Z,12.35
2019-04-23T01:14:39.675Z,12.39
2019-04-23T01:15:42.742Z,12.35
2019-04-23T01:16:38.847Z,12.31
2019-04-23T01:17:58.259Z,12.29
2019-04-23T01:18:49.098Z,12.37
2019-04-23T01:19:41.768Z,12.42
2019-04-23T01:20:44.513Z,12.42
2019-04-23T01:21:18.026Z,12.31
2019-04-23T01:22:19.040Z,12.27
2019-04-23T01:23:21.927Z,12.31
2019-04-23T01:24:21.908Z,12.35
2019-04-23T01:25:24.749Z,12.24
2019-04-23T01:26:34.371Z,12.24
2019-04-23T01:28:00.371Z,12.20
2019-04-23T01:29:42.559Z,12.27
2019-04-23T01:30:41.120Z,12.20
2019-04-23T01:31:43.334Z,12.21
2019-04-23T01:32:43.690Z,12.21
2019-04-23T01:33:47.234Z,12.22
2019-04-23T01:34:51.682Z,12.18
2019-04-23T01:35:41.374Z,12.15
2019-04-23T01:36:36.387Z,12.15
2019-04-23T01:37:41.201Z,12.17
2019-04-23T01:38:45.552Z,12.17
2019-04-23T01:39:45.427Z,12.20
2019-04-23T01:40:40.946Z,12.15
2019-04-23T01:41:49.237Z,12.10
2019-04-23T01:43:42.897Z,12.03
2019-04-23T01:45:35.773Z,12.04
2019-04-23T01:47:05.925Z,12.04
2019-04-23T01:47:45.154Z,12.03
2019-04-23T01:48:47.071Z,11.95
2019-04-23T01:50:48.337Z,11.95
2019-04-23T01:51:49.675Z,11.97
2019-04-23T01:52:50.560Z,11.87
2019-04-23T01:53:45.497Z,11.88
2019-04-23T01:54:45.545Z,11.83
2019-04-23T01:56:38.537Z,11.83
2019-04-23T01:57:47.209Z,11.81
2019-04-23T01:58:45.358Z,11.77
2019-04-23T01:59:46.170Z,11.84
2019-04-23T02:00:45.183Z,11.84
2019-04-23T02:01:48.008Z,11.75
2019-04-23T02:02:49.863Z,11.83
2019-04-23T02:03:43.455Z,11.80
2019-04-23T02:04:45.737Z,11.83
2019-04-23T02:05:42.663Z,11.78
2019-04-23T02:06:45.786Z,11.83
2019-04-23T02:08:48.624Z,11.70
2019-04-23T02:09:52.784Z,11.75
2019-04-23T02:11:49.085Z,11.66
2019-04-23T02:12:49.934Z,11.70
2019-04-23T02:13:43.976Z,11.65
2019-04-23T02:14:48.222Z,11.65
2019-04-23T02:15:44.054Z,11.63
2019-04-23T02:16:47.833Z,11.57
2019-04-23T02:17:47.195Z,11.54
2019-04-23T02:18:43.147Z,11.59
2019-04-23T02:19:47.966Z,11.62
2019-04-23T02:20:43.181Z,11.50
2019-04-23T02:21:47.384Z,11.51
2019-04-23T02:23:09.812Z,11.47
2019-04-23T02:23:43.477Z,11.47
2019-04-23T02:24:51.165Z,11.54
2019-04-23T02:25:54.227Z,11.50
2019-04-23T02:26:46.810Z,11.43
2019-04-23T02:27:47.075Z,11.48
2019-04-23T02:28:49.595Z,11.41
2019-04-23T02:29:56.000Z,11.48
2019-04-23T02:32:05.181Z,11.37
2019-04-23T02:32:59.337Z,11.41
2019-04-23T02:33:49.973Z,11.41
2019-04-23T02:35:55.822Z,11.44
2019-04-23T02:36:59.578Z,11.35
2019-04-23T02:41:57.913Z,11.32
2019-04-23T02:43:00.964Z,11.26
2019-04-23T02:43:46.006Z,11.23
2019-04-23T02:44:46.997Z,11.30
2019-04-23T02:45:56.946Z,11.19
2019-04-23T02:46:56.603Z,11.23
2019-04-23T02:47:53.064Z,11.23
2019-04-23T02:48:52.506Z,11.22
2019-04-23T02:50:01.520Z,11.19
2019-04-23T02:51:52.735Z,11.23
2019-04-23T02:52:48.925Z,11.25
2019-04-23T02:55:54.994Z,11.27
2019-04-23T02:57:56.267Z,11.22
2019-04-23T03:00:05.614Z,11.12
2019-04-23T03:01:11.335Z,11.22
2019-04-23T03:01:58.030Z,11.11
2019-04-23T03:04:50.826Z,11.10
2019-04-23T03:05:51.135Z,11.12
2019-04-23T03:06:56.047Z,11.15
2019-04-23T03:08:46.842Z,11.07
2019-04-23T03:10:56.058Z,11.07
2019-04-23T03:11:47.872Z,11.02
2019-04-23T03:13:12.338Z,10.97
2019-04-23T03:13:53.981Z,10.97
2019-04-23T03:14:50.503Z,10.99
2019-04-23T03:18:08.078Z,10.92
2019-04-23T03:19:29.663Z,10.97
2019-04-23T03:19:53.303Z,10.86
2019-04-23T03:20:59.533Z,10.92
2019-04-23T03:22:01.707Z,10.89
2019-04-23T03:23:00.990Z,10.78
2019-04-23T03:24:16.297Z,10.92
2019-04-23T03:25:07.154Z,10.93
2019-04-23T03:25:45.449Z,10.86
2019-04-23T03:27:41.261Z,10.87
2019-04-23T03:29:59.691Z,10.87
2019-04-23T03:31:57.869Z,10.82
2019-04-23T03:37:48.978Z,10.78
2019-04-23T03:38:48.400Z,10.75
2019-04-23T03:41:02.389Z,10.75
2019-04-23T03:42:02.559Z,10.76
2019-04-23T03:42:47.555Z,10.72
2019-04-23T03:45:58.860Z,10.71
2019-04-23T03:46:41.783Z,10.74
2019-04-23T03:47:48.596Z,10.74
2019-04-23T03:49:09.817Z,10.74
2019-04-23T03:49:55.517Z,10.69
2019-04-23T03:51:52.420Z,10.75
2019-04-23T03:54:46.155Z,10.71
2019-04-23T03:55:54.585Z,10.76
2019-04-23T03:57:47.945Z,10.84
2019-04-23T03:58:51.306Z,10.82
2019-04-23T04:03:12.717Z,10.76
2019-04-23T04:06:03.348Z,10.71
2019-04-23T04:08:00.716Z,10.71
2019-04-23T04:09:03.097Z,10.82
2019-04-23T04:09:49.653Z,10.72
2019-04-23T04:10:55.433Z,10.74
2019-04-23T04:11:37.410Z,10.75
2019-04-23T04:13:51.017Z,10.71
2019-04-23T04:15:06.059Z,10.71
2019-04-23T04:15:55.457Z,10.74
2019-04-23T04:19:46.944Z,10.72
2019-04-23T04:21:09.606Z,10.69
2019-04-23T04:22:59.986Z,10.76
2019-04-23T04:23:57.699Z,10.69
2019-04-23T04:32:02.672Z,10.71
2019-04-23T04:33:00.464Z,10.71
2019-04-23T04:34:01.168Z,10.74
2019-04-23T04:35:47.319Z,10.74
2019-04-23T04:37:56.403Z,10.63
2019-04-23T04:38:44.985Z,10.68
2019-04-23T04:40:02.872Z,10.68
2019-04-23T04:40:54.253Z,10.75
2019-04-23T04:42:08.795Z,10.78
2019-04-23T04:42:59.054Z,10.86
2019-04-23T04:44:04.880Z,10.86
2019-04-23T04:44:56.046Z,10.96
2019-04-23T04:48:49.105Z,11.18
2019-04-23T04:50:50.779Z,11.08
2019-04-23T04:52:06.941Z,11.00
2019-04-23T04:54:08.325Z,11.07
2019-04-23T04:54:44.408Z,11.23
2019-04-23T04:56:56.612Z,11.26
2019-04-23T04:59:05.254Z,11.04
2019-04-23T05:00:01.688Z,11.18
2019-04-23T05:02:01.122Z,11.08
2019-04-23T05:03:02.824Z,11.08
2019-04-23T05:03:32.746Z,11.05
2019-04-23T05:07:11.470Z,11.18
2019-04-23T05:07:50.074Z,11.27
2019-04-23T05:10:51.956Z,11.29
2019-04-23T05:12:54.956Z,11.35
2019-04-23T05:14:02.288Z,11.47
2019-04-23T05:15:44.892Z,11.45
2019-04-23T05:17:51.803Z,11.54
2019-04-23T05:18:55.239Z,11.55
2019-04-23T05:19:50.790Z,11.63
2019-04-23T05:22:52.638Z,11.60
2019-04-23T05:23:44.679Z,11.66
2019-04-23T05:24:43.330Z,11.75
2019-04-23T05:25:46.268Z,11.69
2019-04-23T05:26:30.375Z,11.80
2019-04-23T05:27:55.237Z,12.09
2019-04-23T05:28:52.295Z,12.43
2019-04-23T05:29:46.906Z,12.57
2019-04-23T05:30:46.581Z,12.70
2019-04-23T05:31:32.583Z,12.65
2019-04-23T05:32:41.687Z,12.72
2019-04-23T05:33:49.354Z,12.85
2019-04-23T05:34:44.884Z,13.08
2019-04-23T05:37:59.072Z,13.46
2019-04-23T05:38:52.696Z,13.75
2019-04-23T05:39:39.861Z,13.67
2019-04-23T05:41:03.787Z,13.62
2019-04-23T05:41:41.667Z,13.42
2019-04-23T05:44:44.812Z,13.04
2019-04-23T05:45:42.702Z,12.95
2019-04-23T05:47:42.885Z,12.76
2019-04-23T05:48:40.408Z,12.68
2019-04-23T05:49:47.460Z,12.65
2019-04-23T05:51:52.052Z,12.65
2019-04-23T05:52:45.844Z,12.61
2019-04-23T05:53:47.206Z,12.61
2019-04-23T05:54:49.911Z,12.58
2019-04-23T05:56:02.174Z,12.60
2019-04-23T05:56:55.076Z,12.60
2019-04-23T05:57:38.971Z,12.57
2019-04-23T05:58:51.201Z,12.60
2019-04-23T05:59:43.673Z,12.58
2019-04-23T06:00:51.778Z,12.57
2019-04-23T06:02:48.579Z,12.54
2019-04-23T06:03:48.890Z,12.61
2019-04-23T06:04:43.023Z,12.60
2019-04-23T06:05:49.709Z,12.61
2019-04-23T06:07:42.534Z,12.65
2019-04-23T06:08:47.571Z,12.64
2019-04-23T06:09:39.353Z,12.67
2019-04-23T06:10:53.501Z,12.67
2019-04-23T06:11:52.644Z,12.73
2019-04-23T06:12:39.634Z,12.83
2019-04-23T06:13:43.001Z,12.82
2019-04-23T06:16:49.871Z,12.94
2019-04-23T06:17:43.120Z,12.91
2019-04-23T06:18:44.357Z,12.94
2019-04-23T06:19:48.379Z,12.95
2019-04-23T06:20:54.259Z,12.95
2019-04-23T06:21:54.886Z,12.94
2019-04-23T06:22:45.993Z,12.98
2019-04-23T06:23:48.082Z,13.08
2019-04-23T06:24:41.471Z,13.03
2019-04-23T06:26:10.150Z,13.08
2019-04-23T06:26:45.605Z,13.04
2019-04-23T06:27:39.747Z,13.11
2019-04-23T06:28:46.227Z,13.03
2019-04-23T06:29:39.535Z,13.09
2019-04-23T06:30:47.025Z,13.03
2019-04-23T06:31:45.993Z,13.19
2019-04-23T06:32:38.026Z,13.12
2019-04-23T06:33:41.672Z,13.15
2019-04-23T06:34:50.187Z,13.18
2019-04-23T06:35:45.121Z,13.19
2019-04-23T06:38:03.144Z,13.18
2019-04-23T06:38:54.619Z,13.08
2019-04-23T06:39:41.296Z,13.08
2019-04-23T06:40:43.073Z,13.05
2019-04-23T06:41:46.474Z,13.12
2019-04-23T06:42:36.153Z,13.04
2019-04-23T06:43:49.725Z,13.12
2019-04-23T06:44:58.426Z,13.12
2019-04-23T06:45:37.522Z,13.08
2019-04-23T06:47:42.964Z,13.12
2019-04-23T06:48:42.834Z,13.23
2019-04-23T06:49:47.877Z,13.19
2019-04-23T06:50:44.277Z,13.18
2019-04-23T06:52:31.788Z,13.20
2019-04-23T06:53:35.997Z,13.22
2019-04-23T06:54:47.998Z,13.22
2019-04-23T06:55:42.117Z,13.25
2019-04-23T06:56:54.387Z,13.27
2019-04-23T06:57:38.421Z,13.28
2019-04-23T06:59:41.378Z,13.28
2019-04-23T07:00:42.062Z,13.28
2019-04-23T07:01:45.160Z,13.25
2019-04-23T07:03:45.159Z,13.38
2019-04-23T07:04:49.651Z,13.41
2019-04-23T07:05:40.946Z,13.35
2019-04-23T07:07:02.880Z,13.44
2019-04-23T07:09:39.049Z,13.60
2019-04-23T07:10:39.006Z,13.57
2019-04-23T07:12:44.528Z,13.77
2019-04-23T07:14:51.780Z,13.71
2019-04-23T07:15:48.361Z,13.75
2019-04-23T07:16:38.489Z,13.79
2019-04-23T07:17:30.769Z,13.87
2019-04-23T07:18:41.230Z,13.81
2019-04-23T07:19:54.865Z,13.95
2019-04-23T07:20:43.655Z,14.00
2019-04-23T07:21:35.638Z,13.93
2019-04-23T07:22:39.423Z,13.96
2019-04-23T07:23:52.633Z,14.05
2019-04-23T07:24:43.990Z,14.14
2019-04-23T07:25:44.258Z,14.15
2019-04-23T07:26:39.022Z,14.14
2019-04-23T07:27:37.832Z,14.20
2019-04-23T07:28:49.826Z,14.18
2019-04-23T07:29:42.787Z,14.26
2019-04-23T07:30:38.468Z,14.32
2019-04-23T07:31:59.273Z,14.26
2019-04-23T07:32:47.856Z,14.29
2019-04-23T07:33:35.098Z,14.28
2019-04-23T07:34:43.804Z,14.32
2019-04-23T07:35:41.421Z,14.36
2019-04-23T07:36:40.586Z,14.35
2019-04-23T07:37:47.534Z,14.43
2019-04-23T07:38:47.617Z,14.48
2019-04-23T07:39:47.180Z,14.45
2019-04-23T07:40:40.981Z,14.53
2019-04-23T07:42:03.587Z,14.54
2019-04-23T07:42:42.109Z,14.55
2019-04-23T07:43:50.280Z,14.60
2019-04-23T07:44:52.023Z,14.60
2019-04-23T07:45:45.414Z,14.60
2019-04-23T07:46:56.280Z,14.68
2019-04-23T07:47:48.290Z,14.73
2019-04-23T07:48:37.130Z,14.72
2019-04-23T07:49:56.058Z,14.72
2019-04-23T07:50:45.582Z,14.77
2019-04-23T07:51:46.961Z,14.82
2019-04-23T07:52:54.568Z,14.85
2019-04-23T07:53:46.445Z,14.89
2019-04-23T07:54:45.634Z,14.88
2019-04-23T07:56:42.190Z,14.97
2019-04-23T07:57:42.767Z,15.06
2019-04-23T07:58:33.522Z,15.11
2019-04-23T07:59:48.637Z,15.09
2019-04-23T08:01:39.138Z,15.10
2019-04-23T08:02:38.465Z,15.24
2019-04-23T08:03:43.898Z,15.27
2019-04-23T08:04:57.913Z,15.29
2019-04-23T08:05:39.031Z,15.27
2019-04-23T08:06:40.031Z,15.36
2019-04-23T08:07:47.199Z,15.37
2019-04-23T08:08:43.305Z,15.33
2019-04-23T08:09:50.061Z,15.43
2019-04-23T08:10:46.627Z,15.52
2019-04-23T08:11:40.656Z,15.42
2019-04-23T08:13:47.741Z,15.49
2019-04-23T08:14:48.222Z,15.52
2019-04-23T08:15:42.599Z,15.58
2019-04-23T08:17:37.483Z,15.72
2019-04-23T08:18:45.165Z,15.83
2019-04-23T08:19:49.860Z,15.86
2019-04-23T08:20:47.342Z,15.92
2019-04-23T08:21:40.296Z,16.05
2019-04-23T08:22:39.271Z,16.20
2019-04-23T08:23:42.557Z,16.24
2019-04-23T08:24:50.523Z,16.16
2019-04-23T08:25:47.142Z,16.28
2019-04-23T08:27:42.079Z,16.32
2019-04-23T08:28:52.088Z,16.38
2019-04-23T08:29:32.341Z,16.41
2019-04-23T08:30:42.339Z,16.43
2019-04-23T08:31:46.716Z,16.41
2019-04-23T08:32:35.118Z,16.42
2019-04-23T08:33:53.061Z,16.39
2019-04-23T08:34:58.568Z,16.38
2019-04-23T08:35:43.650Z,16.39
2019-04-23T08:36:50.022Z,16.51
2019-04-23T08:37:58.479Z,16.54
2019-04-23T08:38:57.006Z,16.49
2019-04-23T08:40:54.379Z,16.49
2019-04-23T08:41:59.529Z,16.60
2019-04-23T08:42:46.781Z,16.61
2019-04-23T08:43:49.386Z,16.69
2019-04-23T08:44:44.684Z,16.68
2019-04-23T08:45:38.409Z,16.71
2019-04-23T08:46:52.017Z,16.68
2019-04-23T08:47:49.049Z,16.72
2019-04-23T08:48:41.609Z,16.91
2019-04-23T08:49:53.666Z,16.86
2019-04-23T08:50:44.265Z,16.91
2019-04-23T08:51:54.734Z,17.04
2019-04-23T08:52:42.946Z,17.01
2019-04-23T08:53:46.434Z,17.06
2019-04-23T08:54:47.892Z,17.16
2019-04-23T08:55:44.548Z,17.14
2019-04-23T08:56:48.039Z,17.19
2019-04-23T08:57:36.636Z,17.16
2019-04-23T08:59:01.089Z,17.06
2019-04-23T08:59:43.799Z,17.38
2019-04-23T09:00:47.372Z,17.83
2019-04-23T09:01:59.454Z,18.22
2019-04-23T09:02:40.497Z,18.70
2019-04-23T09:03:51.485Z,19.08
2019-04-23T09:04:50.215Z,19.15
2019-04-23T09:05:46.811Z,19.12
2019-04-23T09:06:50.192Z,18.88
2019-04-23T09:07:45.679Z,18.77
2019-04-23T09:09:45.451Z,18.38
2019-04-23T09:11:56.259Z,18.01
2019-04-23T09:12:45.840Z,17.89
2019-04-23T09:14:48.544Z,17.68
2019-04-23T09:15:44.981Z,17.60
2019-04-23T09:16:44.875Z,17.59
2019-04-23T09:17:49.882Z,17.52
2019-04-23T09:18:37.108Z,17.45
2019-04-23T09:19:56.029Z,17.46
2019-04-23T09:20:44.545Z,17.59
2019-04-23T09:21:41.784Z,17.64
2019-04-23T09:22:40.063Z,17.63
2019-04-23T09:24:53.386Z,17.57
2019-04-23T09:26:41.502Z,17.83
2019-04-23T09:27:40.115Z,17.74
2019-04-23T09:28:45.485Z,17.80
2019-04-23T09:29:51.480Z,17.85
2019-04-23T09:30:42.329Z,17.86
2019-04-23T09:32:36.901Z,17.79
2019-04-23T09:33:48.495Z,17.76
2019-04-23T09:34:46.642Z,17.86
2019-04-23T09:35:38.977Z,17.83
2019-04-23T09:36:42.013Z,17.74
2019-04-23T09:38:39.566Z,17.68
2019-04-23T09:39:44.833Z,17.70
2019-04-23T09:40:54.394Z,17.67
2019-04-23T09:41:37.842Z,17.68
2019-04-23T09:42:50.361Z,17.74
2019-04-23T09:43:37.137Z,17.79
2019-04-23T09:44:57.099Z,17.72
2019-04-23T09:45:49.786Z,17.78
2019-04-23T09:46:49.427Z,17.72
2019-04-23T09:47:49.324Z,17.80
2019-04-23T09:48:49.045Z,17.79
2019-04-23T09:49:39.451Z,17.79
2019-04-23T09:50:46.478Z,17.79
2019-04-23T09:51:45.189Z,17.85
2019-04-23T09:52:50.606Z,17.86
2019-04-23T09:53:48.815Z,17.94
2019-04-23T09:54:51.352Z,18.01
2019-04-23T09:55:41.804Z,18.00
2019-04-23T09:56:44.609Z,18.03
2019-04-23T09:57:46.495Z,18.03
2019-04-23T09:58:41.503Z,18.10
2019-04-23T09:59:47.247Z,18.11
2019-04-23T10:00:42.057Z,18.20
2019-04-23T10:01:40.935Z,18.26
2019-04-23T10:02:33.958Z,18.22
2019-04-23T10:03:25.513Z,18.23
2019-04-23T10:04:28.272Z,18.25
2019-04-23T10:05:28.724Z,18.28
2019-04-23T10:06:22.631Z,18.15
2019-04-23T10:07:28.871Z,18.13
2019-04-23T10:08:21.788Z,18.11
2019-04-23T10:09:16.711Z,18.22
2019-04-23T10:10:16.331Z,18.10
2019-04-23T10:11:16.053Z,18.15
2019-04-23T10:12:14.784Z,18.15
2019-04-23T10:13:15.878Z,18.22
2019-04-23T10:14:14.831Z,18.26
2019-04-23T10:15:22.886Z,18.25
2019-04-23T10:16:17.224Z,18.29
2019-04-23T10:17:16.073Z,18.26
2019-04-23T10:18:16.055Z,18.26
2019-04-23T10:19:15.120Z,18.26
2019-04-23T10:20:16.259Z,18.33
2019-04-23T10:21:15.518Z,18.40
2019-04-23T10:22:15.281Z,18.43
2019-04-23T10:23:15.911Z,18.49
2019-04-23T10:24:15.166Z,18.55
2019-04-23T10:25:15.208Z,18.45
2019-04-23T10:26:16.275Z,18.58
2019-04-23T10:27:14.895Z,18.68
2019-04-23T10:28:16.707Z,18.73
2019-04-23T10:29:15.945Z,18.74
2019-04-23T10:30:14.650Z,18.78
2019-04-23T10:31:14.658Z,18.81
2019-04-23T10:32:15.797Z,18.83
2019-04-23T10:33:15.739Z,18.80
2019-04-23T10:34:14.857Z,18.90
2019-04-23T10:35:28.553Z,18.89
2019-04-23T10:36:19.127Z,18.93
2019-04-23T10:37:15.592Z,19.12
2019-04-23T10:38:18.171Z,19.58
2019-04-23T10:39:21.180Z,20.24
2019-04-23T10:40:19.443Z,20.52
2019-04-23T10:41:16.137Z,20.92
2019-04-23T10:42:16.004Z,20.88
2019-04-23T10:43:15.155Z,20.72
2019-04-23T10:44:14.631Z,20.44
2019-04-23T10:45:30.369Z,20.39
2019-04-23T10:46:36.438Z,20.09
2019-04-23T10:47:45.323Z,20.06
2019-04-23T10:48:56.174Z,19.95
2019-04-23T10:50:46.147Z,19.69
2019-04-23T10:51:59.945Z,19.58
2019-04-23T10:52:37.654Z,19.49
2019-04-23T10:54:02.817Z,19.45
2019-04-23T10:57:39.221Z,19.31
2019-04-23T10:58:38.466Z,19.44
2019-04-23T11:00:44.849Z,19.26
2019-04-23T11:01:46.714Z,19.29
2019-04-23T11:02:59.053Z,19.27
2019-04-23T11:04:53.712Z,19.22
2019-04-23T11:05:50.239Z,19.26
2019-04-23T11:06:45.103Z,19.26
2019-04-23T11:07:51.400Z,19.30
2019-04-23T11:08:45.558Z,19.27
2019-04-23T11:10:46.771Z,19.27
2019-04-23T11:11:44.873Z,19.31
2019-04-23T11:13:45.211Z,19.36
2019-04-23T11:17:46.316Z,19.71
2019-04-23T11:18:50.173Z,19.70
2019-04-23T11:19:52.065Z,19.73
2019-04-23T11:20:45.198Z,19.71
2019-04-23T11:21:47.973Z,19.70
2019-04-23T11:22:45.095Z,19.66
2019-04-23T11:23:46.508Z,19.64
2019-04-23T11:24:48.414Z,19.69
2019-04-23T11:25:42.915Z,19.85
2019-04-23T11:26:42.351Z,19.86
2019-04-23T11:27:42.405Z,19.89
2019-04-23T11:28:38.412Z,19.96
2019-04-23T11:30:14.978Z,20.04
2019-04-23T11:36:01.467Z,20.19
2019-04-23T11:38:06.478Z,20.14
2019-04-23T11:38:55.997Z,20.16
2019-04-23T11:39:53.914Z,20.22
2019-04-23T11:40:36.953Z,20.21
2019-04-23T11:42:42.795Z,20.19
2019-04-23T11:43:38.749Z,20.40
2019-04-23T11:49:00.941Z,20.52
2019-04-23T11:51:17.528Z,20.32
2019-04-23T11:54:50.097Z,20.78
2019-04-23T11:55:49.430Z,20.67
2019-04-23T11:57:54.612Z,20.60
2019-04-23T11:58:42.187Z,20.65
2019-04-23T12:00:51.134Z,20.51
2019-04-23T12:02:43.332Z,20.43
2019-04-23T12:03:57.113Z,20.43
2019-04-23T12:06:04.184Z,20.43
2019-04-23T12:06:50.236Z,20.44
2019-04-23T12:07:41.239Z,20.48
2019-04-23T12:08:44.417Z,20.50
2019-04-23T12:10:47.838Z,20.52
2019-04-23T12:11:52.819Z,20.59
2019-04-23T12:12:39.572Z,20.48
2019-04-23T12:13:52.634Z,20.44
2019-04-23T12:14:50.907Z,20.39
2019-04-23T12:16:57.333Z,20.52
2019-04-23T12:17:51.251Z,20.62
2019-04-23T12:18:58.129Z,20.69
2019-04-23T12:20:41.180Z,20.74
2019-04-23T12:21:43.809Z,20.77
2019-04-23T12:22:46.752Z,20.72
2019-04-23T12:25:48.375Z,20.66
2019-04-23T12:26:55.889Z,20.65
2019-04-23T12:27:33.288Z,20.72
2019-04-23T12:28:44.123Z,20.66
2019-04-23T12:30:45.139Z,20.69
2019-04-23T12:31:47.721Z,20.60
2019-04-23T12:32:48.423Z,20.60
2019-04-23T12:33:51.904Z,20.66
2019-04-23T12:34:58.504Z,20.78
2019-04-23T12:35:50.078Z,20.74
2019-04-23T12:36:43.714Z,20.72
2019-04-23T12:37:41.321Z,20.72
2019-04-23T12:38:38.830Z,20.93
2019-04-23T12:39:42.608Z,20.95
2019-04-23T12:40:38.278Z,20.93
2019-04-23T12:41:43.404Z,20.92
2019-04-23T12:43:41.857Z,20.99
2019-04-23T12:44:52.550Z,21.05
2019-04-23T12:45:37.458Z,21.09
2019-04-23T12:46:45.743Z,21.18
2019-04-23T12:47:50.088Z,21.06
2019-04-23T12:48:46.844Z,21.20
2019-04-23T12:50:05.126Z,21.21
2019-04-23T12:51:46.877Z,21.17
2019-04-23T12:52:49.056Z,21.18
2019-04-23T12:55:02.844Z,21.17
2019-04-23T12:55:41.760Z,21.20
2019-04-23T12:56:46.435Z,21.27
2019-04-23T12:57:47.346Z,21.35
2019-04-23T12:58:32.211Z,21.30
2019-04-23T12:59:44.067Z,21.32
2019-04-23T13:00:36.358Z,21.46
2019-04-23T13:01:49.717Z,21.54
2019-04-23T13:02:44.360Z,21.66
2019-04-23T13:03:41.147Z,21.60
2019-04-23T13:05:34.097Z,21.54
2019-04-23T13:06:45.325Z,21.48
2019-04-23T13:07:50.668Z,21.48
2019-04-23T13:08:48.419Z,21.48
2019-04-23T13:09:48.844Z,21.40
2019-04-23T13:10:41.861Z,21.46
2019-04-23T13:11:40.854Z,21.46
2019-04-23T13:13:03.983Z,21.51
2019-04-23T13:13:58.753Z,21.55
2019-04-23T13:14:49.555Z,21.62
2019-04-23T13:15:40.786Z,21.69
2019-04-23T13:16:53.656Z,21.70
2019-04-23T13:17:54.109Z,21.72
2019-04-23T13:18:44.743Z,21.64
2019-04-23T13:19:47.406Z,21.61
2019-04-23T13:20:38.469Z,21.67
2019-04-23T13:21:57.150Z,21.77
2019-04-23T13:22:48.939Z,21.77
2019-04-23T13:23:41.039Z,21.60
2019-04-23T13:24:42.175Z,21.70
2019-04-23T13:26:37.989Z,21.61
2019-04-23T13:27:50.172Z,21.54
2019-04-23T13:28:37.524Z,21.43
2019-04-23T13:30:46.705Z,21.51
2019-04-23T13:31:40.966Z,21.42
2019-04-23T13:32:46.423Z,21.50
2019-04-23T13:33:44.100Z,21.57
2019-04-23T13:34:48.462Z,21.58
2019-04-23T13:36:45.059Z,21.76
2019-04-23T13:37:59.340Z,21.77
2019-04-23T13:40:53.155Z,21.79
2019-04-23T13:41:38.834Z,21.82
2019-04-23T13:42:45.979Z,21.77
2019-04-23T13:43:47.771Z,21.79
2019-04-23T13:44:46.247Z,21.85
2019-04-23T13:45:59.294Z,21.88
2019-04-23T13:46:39.874Z,21.92
2019-04-23T13:48:40.102Z,21.93
2019-04-23T13:49:37.548Z,21.99
2019-04-23T13:50:57.800Z,21.96
2019-04-23T13:51:40.020Z,21.96
2019-04-23T13:54:59.966Z,21.85
2019-04-23T13:55:42.653Z,21.77
2019-04-23T13:57:12.851Z,21.77
2019-04-23T13:58:48.838Z,21.69
2019-04-23T13:59:44.309Z,21.61
2019-04-23T14:01:00.659Z,21.54
2019-04-23T14:01:57.888Z,21.57
2019-04-23T14:02:43.912Z,21.62
2019-04-23T14:03:50.493Z,21.60
2019-04-23T14:04:50.614Z,21.61
2019-04-23T14:05:41.197Z,21.60
2019-04-23T14:06:43.562Z,21.64
2019-04-23T14:07:48.501Z,21.66
2019-04-23T14:10:48.038Z,21.54
2019-04-23T14:11:54.961Z,21.50
2019-04-23T14:12:53.414Z,21.57
2019-04-23T14:13:52.105Z,21.61
2019-04-23T14:14:47.901Z,21.50
2019-04-23T14:16:56.978Z,21.58
2019-04-23T14:18:08.874Z,21.66
2019-04-23T14:19:47.301Z,21.67
2019-04-23T14:20:40.437Z,21.75
2019-04-23T14:21:37.560Z,21.75
2019-04-23T14:22:59.701Z,21.64
2019-04-23T14:24:59.374Z,21.72
2019-04-23T14:25:51.191Z,21.70
2019-04-23T14:26:41.798Z,21.76
2019-04-23T14:27:49.613Z,21.60
2019-04-23T14:28:44.855Z,21.61
2019-04-23T14:29:48.103Z,21.62
2019-04-23T14:30:46.795Z,21.66
2019-04-23T14:31:45.572Z,21.60
2019-04-23T14:32:48.703Z,21.70
2019-04-23T14:33:54.878Z,21.69
2019-04-23T14:34:54.648Z,21.76
2019-04-23T14:36:47.653Z,21.70
2019-04-23T14:37:50.990Z,21.73
2019-04-23T14:38:43.751Z,21.73
2019-04-23T14:41:48.865Z,21.85
2019-04-23T14:43:49.407Z,21.80
2019-04-23T14:44:41.019Z,21.89
2019-04-23T14:46:23.611Z,21.96
2019-04-23T14:47:48.753Z,21.96
2019-04-23T14:48:46.262Z,22.02
2019-04-23T14:50:46.133Z,22.07
2019-04-23T14:52:50.766Z,22.08
2019-04-23T14:54:03.219Z,21.99
2019-04-23T14:55:11.367Z,22.02
2019-04-23T14:56:46.295Z,21.99
2019-04-23T14:57:53.465Z,22.06
2019-04-23T14:58:50.558Z,22.00
2019-04-23T14:59:48.130Z,22.11
2019-04-23T15:01:02.850Z,22.00
2019-04-23T15:01:39.876Z,21.96
2019-04-23T15:02:51.852Z,21.98
2019-04-23T15:05:56.217Z,21.83
2019-04-23T15:06:43.820Z,21.75
2019-04-23T15:07:46.459Z,21.72
2019-04-23T15:08:52.060Z,21.69
2019-04-23T15:09:43.845Z,21.82
2019-04-23T15:10:56.685Z,21.85
2019-04-23T15:11:53.385Z,21.89
2019-04-23T15:12:47.791Z,21.88
2019-04-23T15:13:45.608Z,21.89
2019-04-23T15:14:52.432Z,21.85
2019-04-23T15:15:44.211Z,21.85
2019-04-23T15:17:40.622Z,21.83
2019-04-23T15:18:52.968Z,21.85
2019-04-23T15:20:55.878Z,21.69
2019-04-23T15:22:05.282Z,21.82
2019-04-23T15:22:57.795Z,21.77
2019-04-23T15:25:13.653Z,21.73
2019-04-23T15:28:06.164Z,21.91
2019-04-23T15:28:18.770Z,21.83
2019-04-23T15:29:31.894Z,21.88
2019-04-23T15:30:48.262Z,21.92
2019-04-23T15:33:56.575Z,21.92
2019-04-23T15:34:36.832Z,21.96
2019-04-23T15:35:57.072Z,21.95
2019-04-23T15:39:47.575Z,22.00
2019-04-23T15:40:45.631Z,22.00
2019-04-23T15:41:49.690Z,21.96
2019-04-23T15:42:52.106Z,22.06
2019-04-23T15:43:53.932Z,22.08
2019-04-23T15:44:45.319Z,21.99
2019-04-23T15:45:47.792Z,22.11
2019-04-23T15:48:57.066Z,22.00
2019-04-23T15:49:47.414Z,22.02
2019-04-23T15:50:43.975Z,22.02
2019-04-23T15:52:58.878Z,22.06
2019-04-23T15:53:46.512Z,21.99
2019-04-23T15:54:45.142Z,22.04
2019-04-23T15:55:56.536Z,22.00
2019-04-23T15:58:54.024Z,21.99
2019-04-23T15:59:47.923Z,21.99
2019-04-23T16:00:55.800Z,22.02
2019-04-23T16:01:37.656Z,22.04
2019-04-23T16:02:14.858Z,21.96
2019-04-23T16:03:15.633Z,21.99
2019-04-23T16:04:17.706Z,21.96
2019-04-23T16:05:15.169Z,22.04
2019-04-23T16:06:19.213Z,21.98
2019-04-23T16:07:32.560Z,21.99
2019-04-23T16:08:56.919Z,22.02
2019-04-23T16:09:52.794Z,21.99
2019-04-23T16:10:51.511Z,22.04
2019-04-23T16:11:43.917Z,21.98
2019-04-23T16:12:50.755Z,21.99